createdAt,value
2022-10-07T00:00:46.458Z,8.45
2022-10-07T00:03:13.193Z,8.49
2022-10-07T00:05:39.736Z,8.46
2022-10-07T00:08:06.362Z,8.34
2022-10-07T00:10:37.553Z,8.20
2022-10-07T00:13:04.810Z,8.20
2022-10-07T00:15:31.416Z,8.16
2022-10-07T00:17:57.934Z,8.20
2022-10-07T00:20:24.457Z,8.20
2022-10-07T00:22:50.980Z,8.22
2022-10-07T00:25:17.583Z,8.19
2022-10-07T00:27:44.276Z,8.18
2022-10-07T00:30:11.612Z,8.16
2022-10-07T00:32:43.385Z,8.06
2022-10-07T00:35:09.940Z,8.15
2022-10-07T00:37:41.675Z,8.16
2022-10-07T00:40:11.185Z,8.18
2022-10-07T00:42:37.973Z,8.12
2022-10-07T00:45:04.774Z,7.89
2022-10-07T00:47:34.704Z,7.97
2022-10-07T00:50:09.396Z,8.00
2022-10-07T00:52:39.001Z,8.01
2022-10-07T00:55:08.262Z,8.09
2022-10-07T00:57:34.857Z,8.03
2022-10-07T01:00:02.422Z,8.13
2022-10-07T01:02:28.915Z,8.11
2022-10-07T01:04:58.844Z,8.19
2022-10-07T01:07:25.833Z,8.19
2022-10-07T01:09:53.704Z,8.23
2022-10-07T01:12:25.928Z,8.17
2022-10-07T01:14:55.154Z,8.10
2022-10-07T01:17:31.004Z,8.13
2022-10-07T01:20:12.630Z,8.01
2022-10-07T01:22:52.398Z,8.13
2022-10-07T01:25:24.878Z,8.16
2022-10-07T01:27:53.502Z,8.03
2022-10-07T01:30:19.929Z,7.95
2022-10-07T01:32:54.588Z,7.96
2022-10-07T01:35:25.101Z,7.91
2022-10-07T01:37:56.402Z,7.88
2022-10-07T01:40:36.096Z,7.86
2022-10-07T01:43:02.527Z,7.85
2022-10-07T01:45:30.279Z,7.79
2022-10-07T01:47:56.797Z,7.74
2022-10-07T01:50:26.596Z,7.81
2022-10-07T01:53:15.549Z,7.93
2022-10-07T01:55:53.791Z,7.91
2022-10-07T01:58:33.497Z,8.00
2022-10-07T02:01:07.827Z,8.03
2022-10-07T02:04:03.883Z,8.06
2022-10-07T02:06:43.753Z,8.00
2022-10-07T02:09:25.579Z,8.04
2022-10-07T02:11:57.298Z,7.97
2022-10-07T02:14:26.502Z,7.91
2022-10-07T02:17:02.461Z,7.86
2022-10-07T02:19:32.334Z,7.86
2022-10-07T02:22:02.632Z,7.88
2022-10-07T02:24:31.014Z,7.79
2022-10-07T02:26:59.649Z,7.85
2022-10-07T02:29:27.196Z,7.97
2022-10-07T02:31:54.741Z,8.09
2022-10-07T02:34:23.113Z,8.07
2022-10-07T02:36:53.769Z,7.99
2022-10-07T02:39:21.460Z,8.06
2022-10-07T02:42:16.770Z,7.97
2022-10-07T02:44:49.510Z,7.86
2022-10-07T02:47:28.916Z,7.76
2022-10-07T02:49:57.178Z,7.74
2022-10-07T02:52:24.367Z,7.82
2022-10-07T02:55:08.455Z,7.94
2022-10-07T02:57:39.782Z,7.94
2022-10-07T03:00:11.149Z,7.88
2022-10-07T03:02:43.701Z,7.91
2022-10-07T03:05:10.293Z,7.88
2022-10-07T03:07:37.019Z,7.86
2022-10-07T03:10:04.348Z,7.89
2022-10-07T03:12:30.772Z,8.00
2022-10-07T03:14:58.477Z,7.99
2022-10-07T03:17:24.880Z,8.03
2022-10-07T03:19:51.249Z,8.07
2022-10-07T03:22:17.625Z,8.09
2022-10-07T03:24:43.989Z,8.16
2022-10-07T03:27:10.455Z,8.13
2022-10-07T03:29:37.146Z,8.18
2022-10-07T03:32:03.986Z,7.98
2022-10-07T03:34:31.610Z,7.95
2022-10-07T03:36:58.744Z,7.98
2022-10-07T03:39:25.163Z,8.00
2022-10-07T03:41:57.019Z,8.09
2022-10-07T03:44:23.625Z,8.14
2022-10-07T03:46:51.386Z,8.14
2022-10-07T03:49:18.878Z,8.03
2022-10-07T03:51:45.419Z,8.02
2022-10-07T03:54:12.941Z,8.19
2022-10-07T03:56:39.373Z,8.14
2022-10-07T03:59:05.886Z,8.08
2022-10-07T04:01:32.381Z,7.99
2022-10-07T04:04:00.396Z,7.87
2022-10-07T04:06:27.387Z,7.77
2022-10-07T04:08:59.822Z,7.68
2022-10-07T04:11:26.693Z,7.71
2022-10-07T04:13:53.115Z,7.66
2022-10-07T04:16:19.934Z,7.63
2022-10-07T04:18:56.877Z,7.51
2022-10-07T04:21:23.851Z,7.55
2022-10-07T04:23:50.553Z,7.45
2022-10-07T04:26:17.079Z,7.51
2022-10-07T04:28:43.711Z,7.48
2022-10-07T04:31:10.835Z,7.45
2022-10-07T04:33:41.602Z,7.42
2022-10-07T04:36:09.452Z,7.44
2022-10-07T04:38:36.029Z,7.45
2022-10-07T04:41:07.082Z,7.47
2022-10-07T04:43:34.109Z,7.48
2022-10-07T04:46:05.913Z,7.41
2022-10-07T04:48:32.561Z,7.36
2022-10-07T04:51:07.734Z,7.33
2022-10-07T04:53:41.328Z,7.36
2022-10-07T04:56:08.790Z,7.33
2022-10-07T04:58:36.155Z,7.29
2022-10-07T05:01:07.910Z,7.30
2022-10-07T05:03:41.852Z,7.20
2022-10-07T05:06:08.936Z,7.26
2022-10-07T05:08:35.607Z,7.27
2022-10-07T05:11:03.162Z,7.26
2022-10-07T05:13:29.660Z,7.08
2022-10-07T05:16:00.588Z,7.11
2022-10-07T05:18:28.350Z,6.96
2022-10-07T05:21:07.618Z,6.92
2022-10-07T05:23:36.665Z,6.98
2022-10-07T05:26:07.791Z,6.98
2022-10-07T05:28:35.071Z,7.01
2022-10-07T05:31:06.248Z,7.07
2022-10-07T05:33:32.796Z,7.14
2022-10-07T05:35:59.895Z,7.14
2022-10-07T05:38:26.657Z,7.14
2022-10-07T05:40:58.723Z,7.17
2022-10-07T05:43:26.688Z,7.19
2022-10-07T05:46:04.701Z,7.21
2022-10-07T05:48:36.605Z,7.27
2022-10-07T05:51:06.014Z,7.16
2022-10-07T05:53:46.756Z,7.15
2022-10-07T05:56:20.226Z,7.23
2022-10-07T05:58:48.483Z,7.28
2022-10-07T06:01:21.950Z,7.30
2022-10-07T06:03:50.390Z,7.36
2022-10-07T06:06:17.475Z,7.48
2022-10-07T06:08:44.038Z,7.59
2022-10-07T06:11:43.361Z,7.58
2022-10-07T06:14:09.767Z,7.58
2022-10-07T06:16:36.246Z,7.59
2022-10-07T06:22:44.192Z,7.59
2022-10-07T06:25:10.872Z,7.61
2022-10-07T06:27:37.345Z,7.71
2022-10-07T06:33:50.753Z,7.81
2022-10-07T06:36:17.990Z,7.82
2022-10-07T06:38:47.350Z,7.83
2022-10-07T06:41:14.147Z,7.99
2022-10-07T06:43:40.538Z,8.09
2022-10-07T06:46:08.754Z,8.21
2022-10-07T06:48:35.431Z,8.22
2022-10-07T06:51:05.943Z,8.28
2022-10-07T06:53:32.538Z,8.36
2022-10-07T06:56:03.267Z,8.36
2022-10-07T06:58:29.808Z,8.40
2022-10-07T07:00:57.592Z,8.46
2022-10-07T07:03:24.484Z,8.61
2022-10-07T07:05:54.995Z,8.61
2022-10-07T07:08:28.964Z,8.73
2022-10-07T07:10:55.636Z,8.87
2022-10-07T07:13:22.326Z,9.02
2022-10-07T07:15:56.367Z,9.04
2022-10-07T07:18:23.094Z,9.12
2022-10-07T07:20:49.482Z,9.18
2022-10-07T07:23:16.058Z,9.44
2022-10-07T07:25:46.019Z,9.57
2022-10-07T07:28:14.905Z,9.76
2022-10-07T07:30:41.647Z,9.85
2022-10-07T07:33:08.800Z,10.02
2022-10-07T07:35:39.905Z,10.13
2022-10-07T07:38:06.350Z,10.19
2022-10-07T07:40:32.777Z,10.37
2022-10-07T07:42:59.236Z,10.54
2022-10-07T07:45:25.661Z,10.70
2022-10-07T07:48:04.328Z,10.80
2022-10-07T07:50:30.815Z,10.98
2022-10-07T07:52:57.686Z,11.09
2022-10-07T07:55:24.273Z,11.16
2022-10-07T07:57:50.681Z,11.40
2022-10-07T08:00:17.445Z,11.48
2022-10-07T08:02:43.939Z,11.57
2022-10-07T08:05:10.715Z,11.67
2022-10-07T08:07:38.353Z,11.90
2022-10-07T08:10:05.158Z,12.01
2022-10-07T08:12:32.516Z,12.07
2022-10-07T08:14:59.030Z,12.08
2022-10-07T08:17:25.669Z,12.19
2022-10-07T08:19:52.097Z,12.34
2022-10-07T08:22:18.492Z,12.51
2022-10-07T08:24:45.823Z,12.50
2022-10-07T08:27:14.366Z,12.62
2022-10-07T08:29:41.081Z,12.67
2022-10-07T08:32:07.459Z,12.80
2022-10-07T08:34:33.882Z,12.89
2022-10-07T08:37:00.289Z,12.99
2022-10-07T08:39:29.319Z,13.04
2022-10-07T08:42:03.462Z,13.12
2022-10-07T08:44:32.467Z,13.18
2022-10-07T08:47:23.829Z,13.32
2022-10-07T08:50:07.825Z,13.31
2022-10-07T08:52:37.230Z,13.37
2022-10-07T08:55:20.023Z,13.44
2022-10-07T08:58:10.536Z,13.52
2022-10-07T09:00:44.507Z,13.74
2022-10-07T09:03:39.341Z,13.80
2022-10-07T09:06:11.348Z,13.96
2022-10-07T09:08:40.884Z,13.97
2022-10-07T09:11:25.794Z,14.08
2022-10-07T09:14:04.684Z,14.34
2022-10-07T09:16:41.730Z,14.33
2022-10-07T09:19:14.590Z,14.43
2022-10-07T09:21:49.563Z,14.48
2022-10-07T09:24:20.274Z,14.63
2022-10-07T09:26:47.344Z,14.67
2022-10-07T09:29:13.873Z,14.51
2022-10-07T09:31:40.271Z,14.81
2022-10-07T09:34:18.142Z,14.94
2022-10-07T09:37:22.242Z,15.06
2022-10-07T09:39:51.047Z,15.17
2022-10-07T09:42:43.181Z,15.28
2022-10-07T09:45:23.003Z,15.59
2022-10-07T09:47:55.632Z,15.68
2022-10-07T09:50:48.793Z,15.78
2022-10-07T09:53:21.957Z,15.79
2022-10-07T09:56:18.182Z,15.66
2022-10-07T09:58:44.632Z,15.81
2022-10-07T10:01:11.914Z,16.10
2022-10-07T10:03:38.430Z,16.21
2022-10-07T10:06:07.305Z,16.47
2022-10-07T10:08:36.185Z,16.37
2022-10-07T10:11:05.266Z,16.54
2022-10-07T10:13:35.641Z,16.74
2022-10-07T10:16:04.240Z,16.67
2022-10-07T10:18:41.140Z,16.77
2022-10-07T10:21:29.795Z,16.88
2022-10-07T10:24:16.547Z,16.61
2022-10-07T10:26:53.850Z,16.53
2022-10-07T10:29:44.624Z,16.67
2022-10-07T10:32:39.213Z,16.79
2022-10-07T10:35:13.973Z,16.88
2022-10-07T10:37:57.961Z,16.63
2022-10-07T10:40:58.881Z,17.22
2022-10-07T10:43:25.173Z,17.24
2022-10-07T10:46:22.587Z,17.64
2022-10-07T10:49:25.359Z,17.63
2022-10-07T10:52:13.417Z,17.83
2022-10-07T10:54:51.166Z,18.05
2022-10-07T10:57:37.366Z,17.91
2022-10-07T11:00:15.481Z,17.99
2022-10-07T11:03:05.608Z,18.54
2022-10-07T11:05:35.796Z,18.56
2022-10-07T11:08:27.489Z,18.79
2022-10-07T11:10:53.969Z,18.07
2022-10-07T11:13:40.952Z,18.17
2022-10-07T11:16:17.351Z,17.69
2022-10-07T11:18:46.950Z,17.80
2022-10-07T11:21:18.141Z,17.40
2022-10-07T11:23:53.524Z,18.08
2022-10-07T11:26:39.604Z,19.09
2022-10-07T11:30:05.912Z,19.08
2022-10-07T11:32:48.061Z,18.19
2022-10-07T11:35:35.508Z,17.61
2022-10-07T11:38:12.178Z,17.54
2022-10-07T11:40:51.109Z,17.42
2022-10-07T11:43:38.217Z,17.16
2022-10-07T11:46:11.776Z,17.82
2022-10-07T11:48:42.576Z,18.30
2022-10-07T11:51:09.735Z,18.61
2022-10-07T11:53:37.687Z,18.90
2022-10-07T11:56:36.356Z,18.82
2022-10-07T11:59:06.510Z,18.25
2022-10-07T12:01:35.952Z,17.66
2022-10-07T12:04:20.849Z,17.48
2022-10-07T12:07:24.911Z,17.51
2022-10-07T12:10:23.166Z,17.39
2022-10-07T12:12:52.046Z,16.95
2022-10-07T12:15:42.311Z,16.96
2022-10-07T12:18:10.342Z,17.14
2022-10-07T12:21:01.544Z,17.17
2022-10-07T12:23:30.838Z,17.14
2022-10-07T12:26:30.282Z,17.13
2022-10-07T12:28:57.444Z,17.12
2022-10-07T12:31:46.185Z,17.16
2022-10-07T12:34:36.001Z,17.34
2022-10-07T12:37:59.307Z,17.43
2022-10-07T12:40:28.750Z,17.54
2022-10-07T12:43:00.932Z,17.23
2022-10-07T12:45:35.290Z,17.19
2022-10-07T12:48:02.657Z,17.22
2022-10-07T12:50:33.462Z,17.40
2022-10-07T12:53:13.385Z,17.30
2022-10-07T12:55:44.714Z,17.28
2022-10-07T12:58:42.122Z,17.40
2022-10-07T13:01:18.075Z,17.47
2022-10-07T13:04:10.228Z,17.46
2022-10-07T13:07:05.987Z,17.25
2022-10-07T13:09:54.516Z,17.37
2022-10-07T13:12:31.272Z,17.53
2022-10-07T13:15:03.712Z,17.65
2022-10-07T13:18:13.798Z,17.74
2022-10-07T13:21:07.505Z,17.91
2022-10-07T13:23:34.683Z,19.08
2022-10-07T13:26:03.157Z,20.24
2022-10-07T13:28:45.546Z,21.03
2022-10-07T13:31:31.604Z,20.86
2022-10-07T13:33:59.577Z,20.73
2022-10-07T13:36:32.863Z,21.87
2022-10-07T13:39:31.856Z,21.74
2022-10-07T13:41:59.861Z,22.46
2022-10-07T13:44:28.701Z,22.73
2022-10-07T13:47:25.151Z,22.67
2022-10-07T13:49:53.283Z,22.69
2022-10-07T13:52:29.097Z,23.49
2022-10-07T13:54:55.489Z,24.25
2022-10-07T13:57:22.382Z,24.16
2022-10-07T13:59:51.556Z,22.98
2022-10-07T14:02:20.278Z,23.07
2022-10-07T14:05:18.771Z,22.64
2022-10-07T14:07:45.353Z,23.26
2022-10-07T14:10:13.502Z,23.28
2022-10-07T14:12:49.276Z,22.89
2022-10-07T14:15:19.709Z,22.67
2022-10-07T14:17:58.362Z,22.34
2022-10-07T14:20:43.724Z,22.31
2022-10-07T14:23:32.806Z,22.80
2022-10-07T14:26:01.015Z,23.16
2022-10-07T14:28:29.832Z,24.11
2022-10-07T14:31:27.253Z,23.93
2022-10-07T14:34:15.690Z,23.36
2022-10-07T14:37:01.544Z,23.60
2022-10-07T14:39:32.321Z,22.90
2022-10-07T14:41:58.695Z,21.91
2022-10-07T14:44:25.889Z,21.51
2022-10-07T14:47:21.221Z,19.92
2022-10-07T14:49:59.576Z,19.57
2022-10-07T14:52:28.927Z,19.53
2022-10-07T14:54:57.378Z,19.23
2022-10-07T14:57:25.262Z,19.09
2022-10-07T14:59:52.195Z,18.81
2022-10-07T15:02:19.029Z,18.81
2022-10-07T15:04:47.228Z,18.85
2022-10-07T15:07:14.980Z,18.98
2022-10-07T15:10:03.428Z,18.93
2022-10-07T15:12:30.578Z,18.87
2022-10-07T15:14:56.980Z,18.67
2022-10-07T15:17:23.351Z,18.72
2022-10-07T15:19:52.257Z,19.03
2022-10-07T15:22:18.664Z,19.52
2022-10-07T15:24:45.029Z,19.71
2022-10-07T15:27:11.390Z,19.19
2022-10-07T15:29:37.731Z,18.91
2022-10-07T15:32:05.464Z,18.50
2022-10-07T15:34:31.816Z,18.40
2022-10-07T15:36:58.545Z,18.32
2022-10-07T15:39:26.444Z,18.77
2022-10-07T15:41:53.294Z,19.09
2022-10-07T15:44:22.142Z,19.79
2022-10-07T15:46:52.456Z,20.12
2022-10-07T15:49:18.934Z,19.92
2022-10-07T15:51:48.661Z,19.31
2022-10-07T15:54:15.164Z,18.49
2022-10-07T15:57:14.679Z,17.95
2022-10-07T15:59:42.025Z,17.75
2022-10-07T16:02:15.875Z,17.79
2022-10-07T16:04:42.877Z,17.57
2022-10-07T16:07:11.108Z,17.61
2022-10-07T16:09:37.663Z,17.49
2022-10-07T16:12:04.094Z,17.24
2022-10-07T16:14:31.479Z,17.17
2022-10-07T16:20:39.630Z,16.53
2022-10-07T16:26:47.839Z,16.62
2022-10-07T16:29:35.844Z,16.54
2022-10-07T16:32:02.369Z,16.43
2022-10-07T16:34:29.345Z,16.38
2022-10-07T16:36:57.121Z,16.16
2022-10-07T16:39:23.771Z,16.07
2022-10-07T16:41:51.886Z,16.05
2022-10-07T16:44:19.369Z,15.84
2022-10-07T16:46:46.075Z,15.81
2022-10-07T16:53:01.172Z,15.27
2022-10-07T16:55:27.957Z,15.20
2022-10-07T16:58:02.516Z,15.10
2022-10-07T17:04:20.377Z,14.79
2022-10-07T17:10:51.765Z,14.76
2022-10-07T17:13:23.294Z,14.61
2022-10-07T17:15:52.623Z,14.45
2022-10-07T17:18:25.341Z,14.30
2022-10-07T17:20:52.289Z,14.17
2022-10-07T17:23:20.970Z,14.07
2022-10-07T17:25:48.081Z,13.82
2022-10-07T17:28:15.139Z,13.79
2022-10-07T17:34:29.317Z,13.59
2022-10-07T17:40:43.586Z,13.41
2022-10-07T17:46:51.095Z,13.13
2022-10-07T17:52:57.990Z,12.72
2022-10-07T17:55:24.519Z,12.58
2022-10-07T17:57:51.055Z,12.65
2022-10-07T18:00:17.725Z,12.63
2022-10-07T18:02:44.559Z,12.63
2022-10-07T18:05:14.389Z,12.51
2022-10-07T18:07:42.751Z,12.32
2022-10-07T18:10:09.592Z,12.10
2022-10-07T18:16:23.254Z,12.21
2022-10-07T18:18:55.001Z,12.04
2022-10-07T18:21:22.450Z,12.05
2022-10-07T18:27:29.809Z,11.95
2022-10-07T18:29:56.302Z,11.95
2022-10-07T18:32:23.227Z,11.96
2022-10-07T18:34:49.645Z,11.74
2022-10-07T18:37:16.663Z,11.75
2022-10-07T18:39:43.080Z,11.71
2022-10-07T18:42:09.526Z,11.52
2022-10-07T18:44:35.994Z,11.38
2022-10-07T18:47:02.460Z,11.35
2022-10-07T18:49:28.911Z,11.32
2022-10-07T18:51:55.375Z,11.26
2022-10-07T18:58:02.295Z,11.47
2022-10-07T19:03:09.534Z,11.48
2022-10-07T19:06:33.524Z,11.39
2022-10-07T19:08:33.977Z,11.44
2022-10-07T19:11:08.408Z,11.23
2022-10-07T19:13:56.177Z,11.33
2022-10-07T19:16:25.469Z,11.25
2022-10-07T19:18:54.084Z,11.23
2022-10-07T19:21:21.226Z,11.01
2022-10-07T19:23:49.398Z,11.09
2022-10-07T19:26:21.266Z,11.08
2022-10-07T19:28:48.835Z,11.07
2022-10-07T19:31:23.805Z,11.08
2022-10-07T19:33:52.887Z,11.30
2022-10-07T19:36:20.883Z,11.28
2022-10-07T19:38:52.217Z,11.37
2022-10-07T19:41:21.308Z,11.38
2022-10-07T19:47:42.614Z,11.48
2022-10-07T19:50:09.074Z,11.43
2022-10-07T19:52:35.466Z,11.41
2022-10-07T19:55:01.901Z,11.35
2022-10-07T20:01:17.911Z,11.40
2022-10-07T20:03:44.503Z,11.30
2022-10-07T20:06:11.193Z,11.19
2022-10-07T20:08:39.608Z,10.99
2022-10-07T20:11:07.020Z,10.94
2022-10-07T20:13:34.866Z,10.86
2022-10-07T20:16:03.348Z,10.83
2022-10-07T20:18:29.768Z,10.74
2022-10-07T20:24:43.164Z,10.57
2022-10-07T20:27:09.583Z,10.54
2022-10-07T20:29:55.952Z,10.43
2022-10-07T20:32:23.135Z,10.25
2022-10-07T20:34:50.125Z,10.24
2022-10-07T20:37:17.170Z,10.38
2022-10-07T20:43:24.030Z,10.73
2022-10-07T20:45:57.004Z,10.79
2022-10-07T20:48:23.601Z,10.76
2022-10-07T20:50:50.866Z,10.82
2022-10-07T20:57:04.186Z,10.83
2022-10-07T20:59:31.322Z,10.81
2022-10-07T21:01:58.783Z,10.82
2022-10-07T21:04:28.308Z,10.84
2022-10-07T21:06:56.577Z,10.83
2022-10-07T21:09:23.375Z,10.70
2022-10-07T21:11:50.170Z,10.71
2022-10-07T21:14:17.308Z,10.77
2022-10-07T21:16:44.253Z,10.73
2022-10-07T21:19:10.691Z,10.73
2022-10-07T21:25:18.134Z,10.59
2022-10-07T21:27:44.510Z,10.59
2022-10-07T21:30:11.882Z,10.63
2022-10-07T21:32:38.293Z,10.67
2022-10-07T21:35:05.034Z,10.62
2022-10-07T21:37:31.421Z,10.63
2022-10-07T21:39:57.982Z,10.54
2022-10-07T21:42:24.849Z,10.57
2022-10-07T21:44:51.256Z,10.55
2022-10-07T21:47:17.638Z,10.50
2022-10-07T21:49:45.185Z,10.65
2022-10-07T21:52:11.565Z,10.55
2022-10-07T21:54:38.369Z,10.41
2022-10-07T21:57:05.094Z,10.35
2022-10-07T21:59:33.554Z,10.35
2022-10-07T22:01:59.977Z,10.37
2022-10-07T22:04:30.519Z,10.37
2022-10-07T22:07:15.874Z,10.33
2022-10-07T22:09:42.262Z,10.36
2022-10-07T22:12:08.800Z,10.42
2022-10-07T22:14:35.449Z,10.44
2022-10-07T22:17:01.839Z,10.45
2022-10-07T22:23:21.387Z,10.33
2022-10-07T22:25:48.790Z,10.27
2022-10-07T22:28:15.207Z,10.23
2022-10-07T22:30:41.741Z,10.18
2022-10-07T22:33:10.200Z,10.09
2022-10-07T22:35:39.979Z,10.18
2022-10-07T22:38:06.407Z,10.26
2022-10-07T22:40:36.625Z,10.32
2022-10-07T22:43:03.013Z,10.12
2022-10-07T22:45:29.419Z,10.10
2022-10-07T22:47:55.797Z,10.00
2022-10-07T22:50:22.191Z,10.02
2022-10-07T22:52:49.222Z,9.96
2022-10-07T22:55:18.012Z,9.81
2022-10-07T22:57:44.382Z,9.74
2022-10-07T23:00:11.479Z,9.78
2022-10-07T23:02:38.029Z,9.76
2022-10-07T23:05:04.804Z,9.78
2022-10-07T23:07:32.173Z,9.82
2022-10-07T23:09:58.678Z,9.80
2022-10-07T23:12:25.369Z,9.85
2022-10-07T23:14:51.762Z,9.87
2022-10-07T23:21:08.139Z,9.88
2022-10-07T23:23:36.399Z,9.82
2022-10-07T23:26:03.859Z,9.86
2022-10-07T23:28:31.961Z,9.83
2022-10-07T23:31:03.358Z,9.87
2022-10-07T23:33:31.007Z,9.86
2022-10-07T23:35:57.567Z,10.01
2022-10-07T23:38:26.261Z,9.95
2022-10-07T23:40:55.714Z,10.02
2022-10-07T23:43:22.681Z,10.03
2022-10-07T23:45:50.723Z,10.04
2022-10-07T23:48:19.043Z,10.02
2022-10-07T23:50:53.209Z,10.11
2022-10-07T23:53:20.525Z,10.09
2022-10-07T23:55:52.929Z,10.05
2022-10-07T23:58:20.927Z,10.15
